createdAt,value
2018-09-14T00:02:08.395Z,68.53
2018-09-14T00:04:37.083Z,69.03
2018-09-14T00:07:05.538Z,69.08
2018-09-14T00:09:33.969Z,68.75
2018-09-14T00:12:02.584Z,68.52
2018-09-14T00:14:31.022Z,69.03
2018-09-14T00:17:00.177Z,68.97
2018-09-14T00:19:28.734Z,69.98
2018-09-14T00:21:57.501Z,69.60
2018-09-14T00:24:25.968Z,69.42
2018-09-14T00:26:56.103Z,69.79
2018-09-14T00:29:24.798Z,69.63
2018-09-14T00:31:53.331Z,69.99
2018-09-14T00:34:21.858Z,69.69
2018-09-14T00:36:50.428Z,70.00
2018-09-14T00:39:18.907Z,69.82
2018-09-14T00:41:47.975Z,69.97
2018-09-14T00:44:16.673Z,70.15
2018-09-14T00:46:45.121Z,69.92
2018-09-14T00:49:14.317Z,69.88
2018-09-14T00:51:43.176Z,69.62
2018-09-14T00:54:11.784Z,70.16
2018-09-14T00:56:40.206Z,70.29
2018-09-14T00:59:08.899Z,70.47
2018-09-14T01:01:37.520Z,70.51
2018-09-14T01:04:06.183Z,70.61
2018-09-14T01:06:34.678Z,71.12
2018-09-14T01:09:03.302Z,70.56
2018-09-14T01:11:31.919Z,70.84
2018-09-14T01:14:01.173Z,71.07
2018-09-14T01:16:29.834Z,70.98
2018-09-14T01:18:58.604Z,71.18
2018-09-14T01:21:28.349Z,71.21
2018-09-14T01:23:57.093Z,71.23
2018-09-14T01:26:26.234Z,71.71
2018-09-14T01:28:54.945Z,71.43
2018-09-14T01:31:23.431Z,71.91
2018-09-14T01:33:51.940Z,71.65
2018-09-14T01:36:20.485Z,71.92
2018-09-14T01:38:48.915Z,71.76
2018-09-14T01:41:17.432Z,71.65
2018-09-14T01:43:46.042Z,72.30
2018-09-14T01:46:14.491Z,72.62
2018-09-14T01:48:43.384Z,72.63
2018-09-14T01:51:11.850Z,72.41
2018-09-14T01:53:40.443Z,72.57
2018-09-14T01:56:08.946Z,72.73
2018-09-14T01:58:37.613Z,72.78
2018-09-14T02:01:06.160Z,72.90
2018-09-14T02:03:34.812Z,72.63
2018-09-14T02:06:03.286Z,73.13
2018-09-14T02:08:31.880Z,72.89
2018-09-14T02:11:00.679Z,72.93
2018-09-14T02:13:29.120Z,72.98
2018-09-14T02:15:58.414Z,73.23
2018-09-14T02:18:27.201Z,73.50
2018-09-14T02:20:55.791Z,73.55
2018-09-14T02:23:24.360Z,73.55
2018-09-14T02:25:53.481Z,73.72
2018-09-14T02:28:22.356Z,73.55
2018-09-14T02:30:51.328Z,73.57
2018-09-14T02:33:20.083Z,73.82
2018-09-14T02:35:48.537Z,73.92
2018-09-14T02:38:23.152Z,74.15
2018-09-14T02:40:51.717Z,74.58
2018-09-14T02:43:20.418Z,74.13
2018-09-14T02:45:48.984Z,74.60
2018-09-14T02:48:17.563Z,74.42
2018-09-14T02:50:46.132Z,74.27
2018-09-14T02:53:15.361Z,74.68
2018-09-14T02:55:43.843Z,75.05
2018-09-14T02:58:12.310Z,74.68
2018-09-14T03:00:41.593Z,74.51
2018-09-14T03:03:10.169Z,74.57
2018-09-14T03:05:38.748Z,74.89
2018-09-14T03:08:07.694Z,75.11
2018-09-14T03:10:36.420Z,75.16
2018-09-14T03:13:05.095Z,75.28
2018-09-14T03:15:33.693Z,75.32
2018-09-14T03:18:02.276Z,75.24
2018-09-14T03:20:30.732Z,75.92
2018-09-14T03:22:59.332Z,75.75
2018-09-14T03:25:27.973Z,76.51
2018-09-14T03:27:56.386Z,75.59
2018-09-14T03:30:24.955Z,75.75
2018-09-14T03:32:54.112Z,75.85
2018-09-14T03:35:22.675Z,75.97
2018-09-14T03:37:51.301Z,76.24
2018-09-14T03:40:19.767Z,75.96
2018-09-14T03:42:48.272Z,76.23
2018-09-14T03:45:18.063Z,76.30
2018-09-14T03:47:46.595Z,76.53
2018-09-14T03:50:15.033Z,76.19
2018-09-14T03:52:43.540Z,76.43
2018-09-14T03:55:12.779Z,76.69
2018-09-14T03:57:41.330Z,76.86
2018-09-14T04:00:09.753Z,76.59
2018-09-14T04:02:38.540Z,76.85
2018-09-14T04:05:07.212Z,76.73
2018-09-14T04:07:35.728Z,76.65
2018-09-14T04:10:05.248Z,76.79
2018-09-14T04:12:34.116Z,76.99
2018-09-14T04:15:02.895Z,76.88
2018-09-14T04:17:38.172Z,76.99
2018-09-14T04:20:07.577Z,77.07
2018-09-14T04:22:36.236Z,77.18
2018-09-14T04:25:04.903Z,77.14
2018-09-14T04:27:33.477Z,77.22
2018-09-14T04:30:02.026Z,77.26
2018-09-14T04:32:30.640Z,77.48
2018-09-14T04:34:59.100Z,77.54
2018-09-14T04:37:27.713Z,77.33
2018-09-14T04:39:56.186Z,77.12
2018-09-14T04:42:24.683Z,77.02
2018-09-14T04:44:53.376Z,77.21
2018-09-14T04:47:21.992Z,76.58
2018-09-14T04:49:51.137Z,76.73
2018-09-14T04:52:19.952Z,76.84
2018-09-14T04:54:48.578Z,77.03
2018-09-14T04:57:17.176Z,77.25
2018-09-14T04:59:45.673Z,77.25
2018-09-14T05:02:14.270Z,77.89
2018-09-14T05:04:42.958Z,77.51
2018-09-14T05:07:12.144Z,76.99
2018-09-14T05:09:40.679Z,77.81
2018-09-14T05:12:09.523Z,77.48
2018-09-14T05:14:38.242Z,77.47
2018-09-14T05:17:06.908Z,77.25
2018-09-14T05:19:35.364Z,77.81
2018-09-14T05:22:03.881Z,77.58
2018-09-14T05:24:32.460Z,78.15
2018-09-14T05:27:01.003Z,77.61
2018-09-14T05:29:29.529Z,77.70
2018-09-14T05:31:58.304Z,78.27
2018-09-14T05:34:26.952Z,77.99
2018-09-14T05:36:55.589Z,77.36
2018-09-14T05:39:24.148Z,77.69
2018-09-14T05:41:53.367Z,78.14
2018-09-14T05:44:22.068Z,77.96
2018-09-14T05:46:50.675Z,78.42
2018-09-14T05:49:19.218Z,78.11
2018-09-14T05:51:47.907Z,78.14
2018-09-14T05:54:23.170Z,78.05
2018-09-14T05:56:51.788Z,78.00
2018-09-14T05:59:21.378Z,77.93
2018-09-14T06:01:50.560Z,77.80
2018-09-14T06:04:19.306Z,78.04
2018-09-14T06:06:47.834Z,77.77
2018-09-14T06:09:16.332Z,77.84
2018-09-14T06:11:45.072Z,78.37
2018-09-14T06:14:13.611Z,78.32
2018-09-14T06:16:42.027Z,78.74
2018-09-14T06:19:10.520Z,78.08
2018-09-14T06:21:39.002Z,77.95
2018-09-14T06:24:07.552Z,77.79
2018-09-14T06:26:36.045Z,77.75
2018-09-14T06:29:04.721Z,77.75
2018-09-14T06:31:33.472Z,77.95
2018-09-14T06:34:01.961Z,77.92
2018-09-14T06:36:31.008Z,77.40
2018-09-14T06:38:59.644Z,77.65
2018-09-14T06:41:28.491Z,77.34
2018-09-14T06:43:57.657Z,76.72
2018-09-14T06:46:26.295Z,76.14
2018-09-14T06:48:54.883Z,76.23
2018-09-14T06:51:23.422Z,76.11
2018-09-14T06:53:51.961Z,75.59
2018-09-14T06:56:20.496Z,74.84
2018-09-14T06:58:48.969Z,75.46
2018-09-14T07:01:17.452Z,74.62
2018-09-14T07:03:46.510Z,74.68
2018-09-14T07:06:15.263Z,74.77
2018-09-14T07:08:44.278Z,74.86
2018-09-14T07:11:13.504Z,74.36
2018-09-14T07:13:42.281Z,74.46
2018-09-14T07:16:10.850Z,74.61
2018-09-14T07:18:39.445Z,74.91
2018-09-14T07:21:08.245Z,74.27
2018-09-14T07:23:36.748Z,74.41
2018-09-14T07:26:05.337Z,74.13
2018-09-14T07:28:33.867Z,74.03
2018-09-14T07:31:02.614Z,73.97
2018-09-14T07:33:31.864Z,73.88
2018-09-14T07:36:00.514Z,74.14
2018-09-14T07:38:29.118Z,73.59
2018-09-14T07:40:57.746Z,73.47
2018-09-14T07:43:26.218Z,72.80
2018-09-14T07:45:55.057Z,71.71
2018-09-14T07:48:23.558Z,71.94
2018-09-14T07:50:52.137Z,71.32
2018-09-14T07:53:20.736Z,72.33
2018-09-14T07:55:49.244Z,71.43
2018-09-14T07:58:17.703Z,71.77
2018-09-14T08:00:46.299Z,71.73
2018-09-14T08:03:14.765Z,71.54
2018-09-14T08:05:43.407Z,70.98
2018-09-14T08:08:12.241Z,71.11
2018-09-14T08:10:40.875Z,70.80
2018-09-14T08:13:09.594Z,70.63
2018-09-14T08:15:38.794Z,70.82
2018-09-14T08:18:07.273Z,70.52
2018-09-14T08:20:36.374Z,70.83
2018-09-14T08:23:05.265Z,70.67
2018-09-14T08:25:33.826Z,69.97
2018-09-14T08:28:02.495Z,70.26
2018-09-14T08:30:31.119Z,70.31
2018-09-14T08:32:59.872Z,69.55
2018-09-14T08:35:28.390Z,69.97
2018-09-14T08:37:56.845Z,69.86
2018-09-14T08:40:25.396Z,69.61
2018-09-14T08:42:53.849Z,68.74
2018-09-14T08:45:22.439Z,69.24
2018-09-14T08:47:51.280Z,69.34
2018-09-14T08:50:19.842Z,69.34
2018-09-14T08:52:48.476Z,68.57
2018-09-14T08:55:16.957Z,68.29
2018-09-14T08:57:45.471Z,68.65
2018-09-14T09:00:17.072Z,67.85
2018-09-14T09:02:45.881Z,68.29
2018-09-14T09:05:14.473Z,67.40
2018-09-14T09:07:42.942Z,67.49
2018-09-14T09:10:11.510Z,66.85
2018-09-14T09:12:40.129Z,66.42
2018-09-14T09:15:08.849Z,66.11
2018-09-14T09:17:37.449Z,65.62
2018-09-14T09:20:06.907Z,64.89
2018-09-14T09:22:35.493Z,64.44
2018-09-14T09:25:04.001Z,62.64
2018-09-14T09:27:33.136Z,62.44
2018-09-14T09:30:02.081Z,61.67
2018-09-14T09:32:30.654Z,61.23
2018-09-14T09:34:59.308Z,61.50
2018-09-14T09:37:27.718Z,61.54
2018-09-14T09:39:56.310Z,60.84
2018-09-14T09:42:25.034Z,60.75
2018-09-14T09:44:54.263Z,60.18
2018-09-14T09:47:23.009Z,59.90
2018-09-14T09:49:51.487Z,59.60
2018-09-14T09:52:20.283Z,58.50
2018-09-14T09:54:48.763Z,57.36
2018-09-14T09:57:17.450Z,56.99
2018-09-14T09:59:46.427Z,57.59
2018-09-14T10:02:20.319Z,56.41
2018-09-14T10:04:54.028Z,56.69
2018-09-14T10:07:25.731Z,54.97
2018-09-14T10:09:54.735Z,54.22
2018-09-14T10:12:24.339Z,54.81
2018-09-14T10:14:53.150Z,55.56
2018-09-14T10:17:21.705Z,53.83
2018-09-14T10:19:50.226Z,53.26
2018-09-14T10:22:18.794Z,53.03
2018-09-14T10:24:47.982Z,52.12
2018-09-14T10:27:16.685Z,52.30
2018-09-14T10:29:45.255Z,52.08
2018-09-14T10:32:13.820Z,50.90
2018-09-14T10:34:42.442Z,49.52
2018-09-14T10:37:14.025Z,50.36
2018-09-14T10:39:42.588Z,49.31
2018-09-14T10:42:11.347Z,49.30
2018-09-14T10:44:40.039Z,49.90
2018-09-14T10:47:08.490Z,48.70
2018-09-14T10:49:37.304Z,47.40
2018-09-14T10:52:05.786Z,47.91
2018-09-14T10:54:34.519Z,48.09
2018-09-14T10:57:03.246Z,47.32
2018-09-14T10:59:31.724Z,47.26
2018-09-14T11:02:00.180Z,47.57
2018-09-14T11:04:29.067Z,48.27
2018-09-14T11:06:57.601Z,48.21
2018-09-14T11:09:26.294Z,47.20
2018-09-14T11:11:54.901Z,47.32
2018-09-14T11:14:23.579Z,45.78
2018-09-14T11:16:52.015Z,46.71
2018-09-14T11:19:21.180Z,46.41
2018-09-14T11:21:56.381Z,44.99
2018-09-14T11:24:24.978Z,45.51
2018-09-14T11:26:53.385Z,44.53
2018-09-14T11:29:22.054Z,43.60
2018-09-14T11:31:51.136Z,42.81
2018-09-14T11:34:19.768Z,44.22
2018-09-14T11:36:48.314Z,43.58
2018-09-14T11:39:16.964Z,43.73
2018-09-14T11:41:45.573Z,42.49
2018-09-14T11:44:14.207Z,41.67
2018-09-14T11:46:42.741Z,42.56
2018-09-14T11:49:11.280Z,42.42
2018-09-14T11:51:40.163Z,41.79
2018-09-14T11:54:08.927Z,40.95
2018-09-14T11:56:37.921Z,41.46
2018-09-14T11:59:06.632Z,42.43
2018-09-14T12:01:35.181Z,41.64
2018-09-14T12:04:03.839Z,42.12
2018-09-14T12:06:32.458Z,41.30
2018-09-14T12:09:01.373Z,39.69
2018-09-14T12:11:29.959Z,39.58
2018-09-14T12:13:58.517Z,38.74
2018-09-14T12:16:27.079Z,38.39
2018-09-14T12:18:56.038Z,38.61
2018-09-14T12:21:24.659Z,38.71
2018-09-14T12:23:53.109Z,39.00
2018-09-14T12:26:21.808Z,38.10
2018-09-14T12:28:50.517Z,36.92
2018-09-14T12:31:19.537Z,36.39
2018-09-14T12:33:47.981Z,36.64
2018-09-14T12:36:16.605Z,35.89
2018-09-14T12:38:45.110Z,35.66
2018-09-14T12:41:14.414Z,34.43
2018-09-14T12:43:42.849Z,34.79
2018-09-14T12:46:11.468Z,34.20
2018-09-14T12:48:40.385Z,34.07
2018-09-14T12:51:09.044Z,34.35
2018-09-14T12:53:37.864Z,34.65
2018-09-14T12:56:08.054Z,33.92
2018-09-14T12:58:37.309Z,33.44
2018-09-14T13:01:05.932Z,33.39
2018-09-14T13:03:34.682Z,34.30
2018-09-14T13:06:03.172Z,33.15
2018-09-14T13:08:31.832Z,34.11
2018-09-14T13:11:00.530Z,33.16
2018-09-14T13:13:31.105Z,33.54
2018-09-14T13:16:00.312Z,32.75
2018-09-14T13:18:29.880Z,33.35
2018-09-14T13:20:58.430Z,32.59
2018-09-14T13:23:27.020Z,32.82
2018-09-14T13:25:55.779Z,31.57
2018-09-14T13:28:24.520Z,31.14
2018-09-14T13:30:53.528Z,30.87
2018-09-14T13:33:22.520Z,30.93
2018-09-14T13:35:51.866Z,32.13
2018-09-14T13:38:20.366Z,31.62
2018-09-14T13:40:49.817Z,31.72
2018-09-14T13:43:18.298Z,32.03
2018-09-14T13:45:48.515Z,32.85
2018-09-14T13:48:17.276Z,31.75
2018-09-14T13:50:45.741Z,32.07
2018-09-14T13:53:15.455Z,32.39
2018-09-14T13:55:45.675Z,33.78
2018-09-14T13:58:14.501Z,34.14
2018-09-14T14:00:43.134Z,33.33
2018-09-14T14:03:11.645Z,33.07
2018-09-14T14:05:40.365Z,34.02
2018-09-14T14:08:08.831Z,35.07
2018-09-14T14:10:37.520Z,33.97
2018-09-14T14:13:06.480Z,34.13
2018-09-14T14:15:34.974Z,34.94
2018-09-14T14:18:03.485Z,35.30
2018-09-14T14:20:32.422Z,34.47
2018-09-14T14:23:01.167Z,34.73
2018-09-14T14:25:29.825Z,34.94
2018-09-14T14:27:58.392Z,34.52
2018-09-14T14:30:27.055Z,35.60
2018-09-14T14:32:55.689Z,35.22
2018-09-14T14:35:24.292Z,34.18
2018-09-14T14:37:56.282Z,34.24
2018-09-14T14:40:26.232Z,34.09
2018-09-14T14:42:54.724Z,35.21
2018-09-14T14:45:23.341Z,34.54
2018-09-14T14:47:51.837Z,34.14
2018-09-14T14:50:20.489Z,34.72
2018-09-14T14:52:50.144Z,33.92
2018-09-14T14:55:18.626Z,34.76
2018-09-14T14:57:47.102Z,34.53
2018-09-14T15:00:15.698Z,34.56
2018-09-14T15:02:44.393Z,34.90
2018-09-14T15:05:14.225Z,35.77
2018-09-14T15:07:42.744Z,35.35
2018-09-14T15:10:12.053Z,35.45
2018-09-14T15:12:40.796Z,35.49
2018-09-14T15:15:10.093Z,34.65
2018-09-14T15:17:38.690Z,35.59
2018-09-14T15:20:07.810Z,36.24
2018-09-14T15:22:37.085Z,36.37
2018-09-14T15:25:06.423Z,36.65
2018-09-14T15:27:34.892Z,36.87
2018-09-14T15:30:04.469Z,37.03
2018-09-14T15:32:32.963Z,37.40
2018-09-14T15:35:01.429Z,37.88
2018-09-14T15:37:36.559Z,37.39
2018-09-14T15:40:11.832Z,38.18
2018-09-14T15:42:42.856Z,38.30
2018-09-14T15:45:12.204Z,38.14
2018-09-14T15:47:41.030Z,39.36
2018-09-14T15:50:10.255Z,39.55
2018-09-14T15:52:38.987Z,39.78
2018-09-14T15:55:07.705Z,39.90
2018-09-14T15:57:37.521Z,40.33
2018-09-14T16:00:07.522Z,39.63
2018-09-14T16:02:36.983Z,39.05
2018-09-14T16:05:06.216Z,40.25
2018-09-14T16:07:37.912Z,40.14
2018-09-14T16:10:06.952Z,39.63
2018-09-14T16:12:41.360Z,40.29
2018-09-14T16:15:10.269Z,40.03
2018-09-14T16:17:38.782Z,40.25
2018-09-14T16:20:08.853Z,39.91
2018-09-14T16:22:39.018Z,40.78
2018-09-14T16:25:07.600Z,40.36
2018-09-14T16:27:44.595Z,40.18
2018-09-14T16:30:13.335Z,40.89
2018-09-14T16:32:41.896Z,41.50
2018-09-14T16:37:47.936Z,41.94
2018-09-14T16:40:17.286Z,41.21
2018-09-14T16:42:46.042Z,42.33
2018-09-14T16:45:21.105Z,42.87
2018-09-14T16:47:55.802Z,42.72
2018-09-14T16:50:25.392Z,42.69
2018-09-14T16:52:55.342Z,42.74
2018-09-14T16:55:23.854Z,42.37
2018-09-14T16:57:54.743Z,42.48
2018-09-14T17:00:23.512Z,42.73
2018-09-14T17:02:52.088Z,42.53
2018-09-14T17:05:21.594Z,43.32
2018-09-14T17:07:51.873Z,43.50
2018-09-14T17:10:21.757Z,42.72
2018-09-14T17:12:50.264Z,43.49
2018-09-14T17:15:18.739Z,43.23
2018-09-14T17:17:48.251Z,44.01
2018-09-14T17:20:16.873Z,43.71
2018-09-14T17:22:45.560Z,43.43
2018-09-14T17:25:14.661Z,43.84
2018-09-14T17:27:43.351Z,44.52
2018-09-14T17:30:12.062Z,44.53
2018-09-14T17:32:40.556Z,44.52
2018-09-14T17:35:09.528Z,44.72
2018-09-14T17:37:38.344Z,45.55
2018-09-14T17:40:07.087Z,45.42
2018-09-14T17:42:35.966Z,45.07
2018-09-14T17:45:04.869Z,45.42
2018-09-14T17:47:33.497Z,45.61
2018-09-14T17:50:02.039Z,45.35
2018-09-14T17:52:31.288Z,46.79
2018-09-14T17:55:00.567Z,46.97
2018-09-14T17:57:29.454Z,46.14
2018-09-14T17:59:58.648Z,46.56
2018-09-14T18:02:27.449Z,46.37
2018-09-14T18:04:55.940Z,47.66
2018-09-14T18:07:24.728Z,47.43
2018-09-14T18:09:53.346Z,47.89
2018-09-14T18:12:22.094Z,48.00
2018-09-14T18:14:51.341Z,48.08
2018-09-14T18:17:19.789Z,47.91
2018-09-14T18:19:49.309Z,48.01
2018-09-14T18:22:19.379Z,48.47
2018-09-14T18:24:49.000Z,48.80
2018-09-14T18:27:17.667Z,48.44
2018-09-14T18:29:46.354Z,48.17
2018-09-14T18:32:15.028Z,48.55
2018-09-14T18:34:44.739Z,49.18
2018-09-14T18:37:13.775Z,49.09
2018-09-14T18:39:42.989Z,49.58
2018-09-14T18:42:11.631Z,50.23
2018-09-14T18:44:41.708Z,49.86
2018-09-14T18:47:10.550Z,49.49
2018-09-14T18:49:39.173Z,50.26
2018-09-14T18:52:08.733Z,49.43
2018-09-14T18:54:37.458Z,49.84
2018-09-14T18:57:06.091Z,49.89
2018-09-14T18:59:35.272Z,50.74
2018-09-14T19:02:03.831Z,50.34
2018-09-14T19:04:32.443Z,50.29
2018-09-14T19:07:01.084Z,50.45
2018-09-14T19:09:29.792Z,51.17
2018-09-14T19:11:58.228Z,50.87
2018-09-14T19:14:26.901Z,50.99
2018-09-14T19:16:55.373Z,50.96
2018-09-14T19:19:27.715Z,51.75
2018-09-14T19:21:57.968Z,50.90
2018-09-14T19:24:27.865Z,51.89
2018-09-14T19:26:56.435Z,52.45
2018-09-14T19:29:25.817Z,52.25
2018-09-14T19:31:54.535Z,51.34
2018-09-14T19:34:23.758Z,52.76
2018-09-14T19:36:52.931Z,52.74
2018-09-14T19:39:21.425Z,52.19
2018-09-14T19:41:50.116Z,52.75
2018-09-14T19:44:18.611Z,52.94
2018-09-14T19:46:47.292Z,52.58
2018-09-14T19:49:15.901Z,52.43
2018-09-14T19:51:45.226Z,53.34
2018-09-14T19:54:14.377Z,53.51
2018-09-14T19:56:43.202Z,53.46
2018-09-14T19:59:11.813Z,53.98
2018-09-14T20:01:41.294Z,53.46
2018-09-14T20:04:10.113Z,53.33
2018-09-14T20:26:47.637Z,55.51
2018-09-14T20:29:17.183Z,54.88
2018-09-14T20:31:45.802Z,55.07
2018-09-14T20:34:16.919Z,55.28
2018-09-14T20:36:52.624Z,55.88
2018-09-14T20:39:22.801Z,55.56
2018-09-14T20:41:51.629Z,56.67
2018-09-14T20:44:20.936Z,56.49
2018-09-14T20:46:55.170Z,56.17
2018-09-14T20:49:23.774Z,55.73
2018-09-14T20:51:52.433Z,56.06
2018-09-14T20:54:20.876Z,55.49
2018-09-14T20:56:49.615Z,55.97
2018-09-14T20:59:18.476Z,56.97
2018-09-14T21:01:48.694Z,56.30
2018-09-14T21:04:17.417Z,56.73
2018-09-14T21:06:45.879Z,56.30
2018-09-14T21:09:15.468Z,56.16
2018-09-14T21:11:44.500Z,55.91
2018-09-14T21:14:12.956Z,56.85
2018-09-14T21:16:41.462Z,56.22
2018-09-14T21:19:10.123Z,56.57
2018-09-14T21:21:39.963Z,55.56
2018-09-14T21:24:08.676Z,55.92
2018-09-14T21:26:37.270Z,55.74
2018-09-14T21:29:06.244Z,56.82
2018-09-14T21:31:35.664Z,56.47
2018-09-14T21:34:04.272Z,56.05
2018-09-14T21:36:32.945Z,56.33
2018-09-14T21:39:01.548Z,57.24
2018-09-14T21:41:30.645Z,57.16
2018-09-14T21:43:59.352Z,56.76
2018-09-14T21:46:27.858Z,57.10
2018-09-14T21:48:57.202Z,56.69
2018-09-14T21:51:26.321Z,57.30
2018-09-14T21:53:54.966Z,56.82
2018-09-14T21:56:23.475Z,56.67
2018-09-14T21:58:52.476Z,56.54
2018-09-14T22:01:27.060Z,57.51
2018-09-14T22:03:56.305Z,56.92
2018-09-14T22:06:25.137Z,57.58
2018-09-14T22:08:54.299Z,57.17
2018-09-14T22:11:23.667Z,57.59
2018-09-14T22:13:52.649Z,57.78
2018-09-14T22:16:21.593Z,57.05
2018-09-14T22:18:50.339Z,57.35
2018-09-14T22:21:19.497Z,56.68
2018-09-14T22:23:48.200Z,56.95
2018-09-14T22:26:16.829Z,56.77
2018-09-14T22:28:45.473Z,57.88
2018-09-14T22:31:14.125Z,58.12
2018-09-14T22:33:42.685Z,57.48
2018-09-14T22:36:11.272Z,58.32
2018-09-14T22:38:39.845Z,57.93
2018-09-14T22:41:08.379Z,57.70
2018-09-14T22:43:37.005Z,57.43
2018-09-14T22:46:05.525Z,57.74
2018-09-14T22:48:33.996Z,58.51
2018-09-14T22:51:02.609Z,57.75
2018-09-14T22:53:31.223Z,57.54
2018-09-14T22:55:59.775Z,57.67
2018-09-14T22:58:28.310Z,57.75
2018-09-14T23:01:02.099Z,57.84
2018-09-14T23:03:30.632Z,57.88
2018-09-14T23:05:59.096Z,57.66
2018-09-14T23:08:27.545Z,58.10
2018-09-14T23:10:56.076Z,58.25
2018-09-14T23:13:24.680Z,57.91
2018-09-14T23:16:00.272Z,58.33
2018-09-14T23:18:29.749Z,58.39
2018-09-14T23:20:58.667Z,58.96
2018-09-14T23:23:27.886Z,59.51
2018-09-14T23:25:58.636Z,58.54
2018-09-14T23:28:27.067Z,59.11
2018-09-14T23:30:55.625Z,58.97
2018-09-14T23:33:24.214Z,59.07
2018-09-14T23:35:52.797Z,59.36
2018-09-14T23:38:21.346Z,59.57
2018-09-14T23:40:49.997Z,59.29
2018-09-14T23:43:19.006Z,59.41
2018-09-14T23:45:48.193Z,59.48
2018-09-14T23:48:16.632Z,60.42
2018-09-14T23:50:45.087Z,60.18
2018-09-14T23:53:13.733Z,60.81
2018-09-14T23:55:42.459Z,60.44
2018-09-14T23:58:10.976Z,60.34
